Pullman Moscow Regional Airport
KPUW : now visible

Airfield :











YOU CAN JOIN US ON...

 
LOGIN :

Register | Disclaimer

   EN    FR    IT 

 









Legend :    VFR   Marginal VFR   IFR   Intensive IFR   Very Intensive IFR
Visi :
Ceiling :
>= 8 km
>= 3000ft
5 to 8 km
1000 to 3000 ft
1500m to 5 km
500 to 1000 ft
800 to 1500m
200 to 500 ft
< 800m
< 200 ft
Symbols :   Thunderstorms  Fog  Heavy snow  Heavy precipitations  Wind > 20 kt






- Airport Elevation : 2556 ft
- IATA code : PUW


KPUW - Pullman Moscow Regional

CURRENT METAR :
  • 290553Z AUTO 20006KT 8SM -RA OVC037 06/04 A2996 RMK AO2 SLP154 P0006 60011 T00610044 10100 20061 50002

EXPIRED METARs :
  • 290453Z AUTO 20004KT 5SM -RA BR OVC031 06/04 A2997 RMK AO2 SLP157 P0005 T00610044
  • 290353Z AUTO 00000KT 10SM -RA OVC037 07/04 A2996 RMK AO2 RAB19 SLP154 P0000 T00720039

TAF KPUW
Valid from the 29 at 06:00 until the 30 at 06:00 UTC


290520Z 2906/3006 VRB04KT P6SM -SHRA OVC035
FM291100 18007KT 6SM -RA BR OVC030
TEMPO 2913/2915 4SM -SHRA BR OVC015
FM291500 20009KT 6SM -RA BR OVC025
TEMPO 2915/2917 4SM -SHRA OVC015
FM291700 20009KT P6SM VCSH OVC020



MET'MAP, your aeronautical weather chart ! - Copyright ORBIFLY December 2007 - Disclaimer

ORBIFLY MET'MAP TEAM :

Programming & Development : Alexandra Zaïnal
Concept & original design : Baudouin d'Aumeries
Assistance for programming : Marc-Olivier Méhu
Technical & hardware support : Manuel Goepfert

Contact : metmap@orbifly.com




SOURCES & CREDITS :

   NOAA       Earth
Advisory